CheckWX is a tool to help pilots better visualize weather data.  It is not intended as a substitute for an official pre-flight weather briefing.

10:03:54 UTC

KLXT METAR
Lee's Summit Municipal Airport
Lee's Summit, Missouri, USA
Current

1 hour ago

KLXT 070853Z AUTO 16006KT 10SM CLR 25/21 A2997 RMK AO2 SLP137 T02500206 56011
Observed
Jul-7 @ 08:53 UTC
Wind
  • 160° at 6 KTS
Visibility
10 SM
Flight Rules
VFR
Cloud Levels
  • Clear skies
Temperature
25°C / 77°F
Dewpoint
21°C / 70°F
Humidity
79%
Altimeter
29.97" Hg
Pressure
1014.92 hPa
Previous

2 hours ago

KLXT 070753Z AUTO 17005KT 10SM CLR 26/21 A2998 RMK AO2 SLP139 T02560211
Observed
Jul-7 @ 07:53 UTC
Wind
  • 170° at 5 KTS
Visibility
10 SM
Flight Rules
VFR
Cloud Levels
  • Clear skies
Temperature
26°C / 79°F
Dewpoint
21°C / 70°F
Humidity
74%
Altimeter
29.98" Hg
Pressure
1015.22 hPa
Previous

3 hours ago

KLXT 070653Z AUTO 13006KT 10SM CLR 27/21 A2999 RMK AO2 SLP144 T02670211
Observed
Jul-7 @ 06:53 UTC
Wind
  • 130° at 6 KTS
Visibility
10 SM
Flight Rules
VFR
Cloud Levels
  • Clear skies
Temperature
27°C / 81°F
Dewpoint
21°C / 70°F
Humidity
70%
Altimeter
29.99" Hg
Pressure
1015.62 hPa